sensor_id;sensor_type;location;lat;lon;timestamp;pressure;altitude;pressure_sealevel;temperature;humidity
15750;BME280;7976;52.526;13.326;2024-01-10T00:01:48;103104.56;;;-4.16;70.79
15750;BME280;7976;52.526;13.326;2024-01-10T00:04:15;103101.75;;;-4.21;70.87
15750;BME280;7976;52.526;13.326;2024-01-10T00:06:42;103104.00;;;-4.25;70.91
15750;BME280;7976;52.526;13.326;2024-01-10T00:09:09;103096.06;;;-4.30;70.52
15750;BME280;7976;52.526;13.326;2024-01-10T00:11:36;103099.50;;;-4.29;70.81
15750;BME280;7976;52.526;13.326;2024-01-10T00:14:04;103098.69;;;-4.28;70.82
15750;BME280;7976;52.526;13.326;2024-01-10T00:16:31;103099.25;;;-4.34;70.49
15750;BME280;7976;52.526;13.326;2024-01-10T00:18:58;103087.94;;;-4.37;70.42
15750;BME280;7976;52.526;13.326;2024-01-10T00:21:25;103091.28;;;-4.38;70.79
15750;BME280;7976;52.526;13.326;2024-01-10T00:23:51;103091.19;;;-4.40;70.56
15750;BME280;7976;52.526;13.326;2024-01-10T00:26:18;103090.09;;;-4.43;70.66
15750;BME280;7976;52.526;13.326;2024-01-10T00:28:45;103089.13;;;-4.45;70.65
15750;BME280;7976;52.526;13.326;2024-01-10T00:31:13;103086.69;;;-4.44;70.83
15750;BME280;7976;52.526;13.326;2024-01-10T00:33:40;103091.28;;;-4.38;70.87
15750;BME280;7976;52.526;13.326;2024-01-10T00:36:07;103092.44;;;-4.33;70.97
15750;BME280;7976;52.526;13.326;2024-01-10T00:38:34;103085.84;;;-4.30;70.95
15750;BME280;7976;52.526;13.326;2024-01-10T00:41:01;103074.72;;;-4.30;70.81
15750;BME280;7976;52.526;13.326;2024-01-10T00:43:28;103074.72;;;-4.30;71.03
15750;BME280;7976;52.526;13.326;2024-01-10T00:45:55;103072.38;;;-4.27;71.07
15750;BME280;7976;52.526;13.326;2024-01-10T00:48:23;103077.50;;;-4.27;70.77
15750;BME280;7976;52.526;13.326;2024-01-10T00:50:50;103070.59;;;-4.28;70.50
15750;BME280;7976;52.526;13.326;2024-01-10T00:53:17;103070.00;;;-4.24;70.57
15750;BME280;7976;52.526;13.326;2024-01-10T00:55:43;103063.13;;;-4.25;70.63
15750;BME280;7976;52.526;13.326;2024-01-10T00:58:10;103066.66;;;-4.23;70.46
15750;BME280;7976;52.526;13.326;2024-01-10T01:00:37;103064.19;;;-4.22;70.47
15750;BME280;7976;52.526;13.326;2024-01-10T01:03:06;103064.28;;;-4.20;70.29
15750;BME280;7976;52.526;13.326;2024-01-10T01:05:34;103061.84;;;-4.19;70.24
15750;BME280;7976;52.526;13.326;2024-01-10T01:08:01;103059.28;;;-4.19;70.23
15750;BME280;7976;52.526;13.326;2024-01-10T01:10:28;103060.88;;;-4.21;70.04
15750;BME280;7976;52.526;13.326;2024-01-10T01:12:54;103062.44;;;-4.23;70.02
15750;BME280;7976;52.526;13.326;2024-01-10T01:15:21;103060.78;;;-4.22;69.96
15750;BME280;7976;52.526;13.326;2024-01-10T01:17:48;103062.34;;;-4.24;70.01
15750;BME280;7976;52.526;13.326;2024-01-10T01:20:15;103069.22;;;-4.23;69.67
15750;BME280;7976;52.526;13.326;2024-01-10T01:22:43;103060.69;;;-4.24;69.46
15750;BME280;7976;52.526;13.326;2024-01-10T01:25:10;103063.34;;;-4.22;69.39
15750;BME280;7976;52.526;13.326;2024-01-10T01:27:37;103066.75;;;-4.22;69.05
15750;BME280;7976;52.526;13.326;2024-01-10T01:30:06;103062.34;;;-4.24;68.93
15750;BME280;7976;52.526;13.326;2024-01-10T01:32:33;103060.69;;;-4.24;68.98
15750;BME280;7976;52.526;13.326;2024-01-10T01:35:00;103063.25;;;-4.24;68.70
15750;BME280;7976;52.526;13.326;2024-01-10T01:37:26;103060.56;;;-4.25;68.48
15750;BME280;7976;52.526;13.326;2024-01-10T01:39:54;103060.47;;;-4.27;68.51
15750;BME280;7976;52.526;13.326;2024-01-10T01:42:21;103059.22;;;-4.33;68.41
15750;BME280;7976;52.526;13.326;2024-01-10T01:44:48;103057.22;;;-4.39;68.79
15750;BME280;7976;52.526;13.326;2024-01-10T01:47:15;103053.84;;;-4.38;68.61
15750;BME280;7976;52.526;13.326;2024-01-10T01:49:42;103055.53;;;-4.38;68.53
15750;BME280;7976;52.526;13.326;2024-01-10T01:52:10;103057.97;;;-4.40;68.42
15750;BME280;7976;52.526;13.326;2024-01-10T01:54:37;103053.75;;;-4.39;68.60
15750;BME280;7976;52.526;13.326;2024-01-10T01:57:05;103046.47;;;-4.33;68.69
15750;BME280;7976;52.526;13.326;2024-01-10T01:59:33;103055.47;;;-4.25;68.54
15750;BME280;7976;52.526;13.326;2024-01-10T02:02:02;103056.53;;;-4.22;68.34
15750;BME280;7976;52.526;13.326;2024-01-10T02:04:31;103048.00;;;-4.22;68.55
15750;BME280;7976;52.526;13.326;2024-01-10T02:06:57;103052.41;;;-4.20;68.54
15750;BME280;7976;52.526;13.326;2024-01-10T02:09:25;103054.34;;;-4.16;68.46
15750;BME280;7976;52.526;13.326;2024-01-10T02:11:52;103046.88;;;-4.13;68.15
15750;BME280;7976;52.526;13.326;2024-01-10T02:14:21;103038.41;;;-4.12;68.04
15750;BME280;7976;52.526;13.326;2024-01-10T02:16:48;103048.63;;;-4.12;67.95
15750;BME280;7976;52.526;13.326;2024-01-10T02:19:20;103053.72;;;-4.12;68.14
15750;BME280;7976;52.526;13.326;2024-01-10T02:21:47;103061.47;;;-4.10;67.88
15750;BME280;7976;52.526;13.326;2024-01-10T02:24:14;103056.50;;;-4.09;68.21
15750;BME280;7976;52.526;13.326;2024-01-10T02:26:42;103052.41;;;-4.05;68.08
15750;BME280;7976;52.526;13.326;2024-01-10T02:29:09;103056.84;;;-4.03;68.07
15750;BME280;7976;52.526;13.326;2024-01-10T02:31:36;103055.94;;;-4.03;67.68
15750;BME280;7976;52.526;13.326;2024-01-10T02:34:03;103053.81;;;-4.10;67.31
15750;BME280;7976;52.526;13.326;2024-01-10T02:36:30;103051.72;;;-4.17;67.24
15750;BME280;7976;52.526;13.326;2024-01-10T02:38:57;103056.63;;;-4.20;67.17
15750;BME280;7976;52.526;13.326;2024-01-10T02:41:24;103054.94;;;-4.20;67.38
15750;BME280;7976;52.526;13.326;2024-01-10T02:43:52;103054.19;;;-4.19;67.23
15750;BME280;7976;52.526;13.326;2024-01-10T02:46:19;103040.78;;;-4.15;67.55
15750;BME280;7976;52.526;13.326;2024-01-10T02:48:48;103036.75;;;-4.11;67.36
15750;BME280;7976;52.526;13.326;2024-01-10T02:51:15;103031.53;;;-4.13;67.19
15750;BME280;7976;52.526;13.326;2024-01-10T02:53:41;103040.97;;;-4.12;67.23
15750;BME280;7976;52.526;13.326;2024-01-10T02:56:07;103042.66;;;-4.12;66.71
15750;BME280;7976;52.526;13.326;2024-01-10T02:58:34;103034.00;;;-4.14;66.34
15750;BME280;7976;52.526;13.326;2024-01-10T03:01:02;103032.06;;;-4.18;66.17
15750;BME280;7976;52.526;13.326;2024-01-10T03:03:29;103041.13;;;-4.23;66.27
15750;BME280;7976;52.526;13.326;2024-01-10T03:05:56;103031.31;;;-4.30;66.90
15750;BME280;7976;52.526;13.326;2024-01-10T03:08:23;103028.00;;;-4.29;66.77
15750;BME280;7976;52.526;13.326;2024-01-10T03:10:49;103032.13;;;-4.31;66.68
15750;BME280;7976;52.526;13.326;2024-01-10T03:13:16;103032.63;;;-4.37;66.60
15750;BME280;7976;52.526;13.326;2024-01-10T03:15:43;103028.41;;;-4.36;66.52
15750;BME280;7976;52.526;13.326;2024-01-10T03:18:11;103026.66;;;-4.37;66.62
15750;BME280;7976;52.526;13.326;2024-01-10T03:20:38;103029.97;;;-4.38;66.31
15750;BME280;7976;52.526;13.326;2024-01-10T03:23:05;103032.44;;;-4.40;66.41
15750;BME280;7976;52.526;13.326;2024-01-10T03:25:32;103024.69;;;-4.41;66.29
15750;BME280;7976;52.526;13.326;2024-01-10T03:27:57;103024.69;;;-4.41;66.38
15750;BME280;7976;52.526;13.326;2024-01-10T03:30:24;103028.81;;;-4.43;66.57
15750;BME280;7976;52.526;13.326;2024-01-10T03:32:51;103027.06;;;-4.44;66.91
15750;BME280;7976;52.526;13.326;2024-01-10T03:35:19;103019.41;;;-4.44;67.19
15750;BME280;7976;52.526;13.326;2024-01-10T03:37:46;103019.41;;;-4.44;67.38
15750;BME280;7976;52.526;13.326;2024-01-10T03:40:13;103024.53;;;-4.44;67.58
15750;BME280;7976;52.526;13.326;2024-01-10T03:42:40;103029.34;;;-4.49;67.83
15750;BME280;7976;52.526;13.326;2024-01-10T03:45:07;103029.25;;;-4.50;68.43
15750;BME280;7976;52.526;13.326;2024-01-10T03:47:34;103020.63;;;-4.52;68.78
15750;BME280;7976;52.526;13.326;2024-01-10T03:50:01;103021.41;;;-4.53;69.20
15750;BME280;7976;52.526;13.326;2024-01-10T03:52:29;103024.84;;;-4.53;69.28
15750;BME280;7976;52.526;13.326;2024-01-10T03:54:56;103014.47;;;-4.56;69.50
15750;BME280;7976;52.526;13.326;2024-01-10T03:57:23;103013.56;;;-4.56;70.02
15750;BME280;7976;52.526;13.326;2024-01-10T03:59:50;103007.56;;;-4.57;70.18
15750;BME280;7976;52.526;13.326;2024-01-10T04:02:17;103010.22;;;-4.55;70.11
15750;BME280;7976;52.526;13.326;2024-01-10T04:04:43;103007.56;;;-4.57;70.34
15750;BME280;7976;52.526;13.326;2024-01-10T04:07:10;103003.25;;;-4.58;69.96
15750;BME280;7976;52.526;13.326;2024-01-10T04:09:38;102997.09;;;-4.61;70.00
15750;BME280;7976;52.526;13.326;2024-01-10T04:12:07;103003.94;;;-4.60;70.08
15750;BME280;7976;52.526;13.326;2024-01-10T04:14:33;103005.53;;;-4.62;69.80
15750;BME280;7976;52.526;13.326;2024-01-10T04:17:00;102999.63;;;-4.61;70.06
15750;BME280;7976;52.526;13.326;2024-01-10T04:19:28;102996.09;;;-4.63;70.02
15750;BME280;7976;52.526;13.326;2024-01-10T04:21:55;103004.75;;;-4.61;69.81
15750;BME280;7976;52.526;13.326;2024-01-10T04:24:22;102999.63;;;-4.61;69.87
15750;BME280;7976;52.526;13.326;2024-01-10T04:26:50;102997.19;;;-4.60;69.87
15750;BME280;7976;52.526;13.326;2024-01-10T04:29:17;102994.72;;;-4.58;70.00
15750;BME280;7976;52.526;13.326;2024-01-10T04:31:44;102998.41;;;-4.53;69.73
15750;BME280;7976;52.526;13.326;2024-01-10T04:34:11;103000.56;;;-4.46;69.60
15750;BME280;7976;52.526;13.326;2024-01-10T04:36:38;102989.84;;;-4.41;69.37
15750;BME280;7976;52.526;13.326;2024-01-10T04:39:05;102986.56;;;-4.38;68.84
15750;BME280;7976;52.526;13.326;2024-01-10T04:41:31;102998.56;;;-4.37;68.59
15750;BME280;7976;52.526;13.326;2024-01-10T04:44:00;103001.88;;;-4.38;68.20
15750;BME280;7976;52.526;13.326;2024-01-10T04:46:27;102995.81;;;-4.40;67.55
15750;BME280;7976;52.526;13.326;2024-01-10T04:48:54;102993.97;;;-4.43;67.24
15750;BME280;7976;52.526;13.326;2024-01-10T04:51:20;102990.69;;;-4.40;67.33
15750;BME280;7976;52.526;13.326;2024-01-10T04:53:48;102990.81;;;-4.39;66.89
15750;BME280;7976;52.526;13.326;2024-01-10T04:56:15;102982.63;;;-4.33;67.13
15750;BME280;7976;52.526;13.326;2024-01-10T04:58:41;102993.81;;;-4.31;66.69
15750;BME280;7976;52.526;13.326;2024-01-10T05:01:08;102988.88;;;-4.28;67.23
15750;BME280;7976;52.526;13.326;2024-01-10T05:03:35;102991.50;;;-4.27;66.63
15750;BME280;7976;52.526;13.326;2024-01-10T05:06:02;102996.44;;;-4.30;66.05
15750;BME280;7976;52.526;13.326;2024-01-10T05:08:30;103007.38;;;-4.32;66.01
15750;BME280;7976;52.526;13.326;2024-01-10T05:10:57;103001.28;;;-4.34;66.19
15750;BME280;7976;52.526;13.326;2024-01-10T05:13:24;103001.28;;;-4.34;65.96
15750;BME280;7976;52.526;13.326;2024-01-10T05:15:51;102996.97;;;-4.35;66.17
15750;BME280;7976;52.526;13.326;2024-01-10T05:18:19;103001.13;;;-4.37;66.53
15750;BME280;7976;52.526;13.326;2024-01-10T05:20:46;103001.47;;;-4.31;66.61
15750;BME280;7976;52.526;13.326;2024-01-10T05:23:13;103002.53;;;-4.28;66.48
15750;BME280;7976;52.526;13.326;2024-01-10T05:25:40;103007.06;;;-4.24;66.42
15750;BME280;7976;52.526;13.326;2024-01-10T05:28:06;102996.63;;;-4.27;66.18
15750;BME280;7976;52.526;13.326;2024-01-10T05:30:33;102995.38;;;-4.33;66.07
15750;BME280;7976;52.526;13.326;2024-01-10T05:33:00;103004.44;;;-4.38;66.21
15750;BME280;7976;52.526;13.326;2024-01-10T05:35:29;103004.28;;;-4.41;66.16
15750;BME280;7976;52.526;13.326;2024-01-10T05:37:55;103000.75;;;-4.43;66.29
15750;BME280;7976;52.526;13.326;2024-01-10T05:40:22;102989.66;;;-4.44;66.38
15750;BME280;7976;52.526;13.326;2024-01-10T05:42:49;102999.16;;;-4.41;66.36
15750;BME280;7976;52.526;13.326;2024-01-10T05:45:16;102990.59;;;-4.42;66.69
15750;BME280;7976;52.526;13.326;2024-01-10T05:47:43;102989.66;;;-4.44;66.95
15750;BME280;7976;52.526;13.326;2024-01-10T05:50:10;102990.69;;;-4.40;66.65
15750;BME280;7976;52.526;13.326;2024-01-10T05:52:37;102987.19;;;-4.42;66.74
15750;BME280;7976;52.526;13.326;2024-01-10T05:55:06;102985.41;;;-4.43;66.73
15750;BME280;7976;52.526;13.326;2024-01-10T05:57:34;102989.53;;;-4.45;66.50
15750;BME280;7976;52.526;13.326;2024-01-10T06:00:01;102990.34;;;-4.46;66.47
15750;BME280;7976;52.526;13.326;2024-01-10T06:02:31;102984.25;;;-4.48;66.79
15750;BME280;7976;52.526;13.326;2024-01-10T06:04:58;102987.88;;;-4.45;66.91
15750;BME280;7976;52.526;13.326;2024-01-10T06:07:24;102981.88;;;-4.45;66.67
15750;BME280;7976;52.526;13.326;2024-01-10T06:09:52;102979.34;;;-4.45;66.56
15750;BME280;7976;52.526;13.326;2024-01-10T06:12:19;102981.72;;;-4.48;66.71
15750;BME280;7976;52.526;13.326;2024-01-10T06:14:46;102982.78;;;-4.45;66.80
15750;BME280;7976;52.526;13.326;2024-01-10T06:17:13;102969.91;;;-4.46;66.72
15750;BME280;7976;52.526;13.326;2024-01-10T06:19:39;102980.94;;;-4.47;66.75
15750;BME280;7976;52.526;13.326;2024-01-10T06:22:06;102974.75;;;-4.51;66.64
15750;BME280;7976;52.526;13.326;2024-01-10T06:24:33;102966.22;;;-4.51;66.67
15750;BME280;7976;52.526;13.326;2024-01-10T06:27:01;102966.94;;;-4.54;66.60
15750;BME280;7976;52.526;13.326;2024-01-10T06:29:28;102967.19;;;-4.49;66.93
15750;BME280;7976;52.526;13.326;2024-01-10T06:31:54;102961.28;;;-4.48;66.89
15750;BME280;7976;52.526;13.326;2024-01-10T06:34:23;102965.63;;;-4.47;67.12
15750;BME280;7976;52.526;13.326;2024-01-10T06:36:50;102971.88;;;-4.42;66.79
15750;BME280;7976;52.526;13.326;2024-01-10T06:39:16;102978.91;;;-4.38;66.61
15750;BME280;7976;52.526;13.326;2024-01-10T06:41:46;102967.19;;;-4.35;66.55
15750;BME280;7976;52.526;13.326;2024-01-10T06:44:14;102971.63;;;-4.32;66.61
15750;BME280;7976;52.526;13.326;2024-01-10T06:46:43;102969.25;;;-4.29;66.32
15750;BME280;7976;52.526;13.326;2024-01-10T06:49:10;102965.63;;;-4.33;66.10
15750;BME280;7976;52.526;13.326;2024-01-10T06:51:37;102966.13;;;-4.38;66.14
15750;BME280;7976;52.526;13.326;2024-01-10T06:54:04;102971.06;;;-4.41;66.07
15750;BME280;7976;52.526;13.326;2024-01-10T06:56:31;102969.22;;;-4.44;66.19
15750;BME280;7976;52.526;13.326;2024-01-10T06:58:59;102978.56;;;-4.44;66.30
15750;BME280;7976;52.526;13.326;2024-01-10T07:01:28;102974.44;;;-4.42;66.62
15750;BME280;7976;52.526;13.326;2024-01-10T07:03:55;102968.53;;;-4.41;66.30
15750;BME280;7976;52.526;13.326;2024-01-10T07:06:22;102973.81;;;-4.38;65.97
15750;BME280;7976;52.526;13.326;2024-01-10T07:08:50;102970.47;;;-4.37;66.19
15750;BME280;7976;52.526;13.326;2024-01-10T07:11:17;102969.06;;;-4.32;66.04
15750;BME280;7976;52.526;13.326;2024-01-10T07:13:45;102976.09;;;-4.28;66.16
15750;BME280;7976;52.526;13.326;2024-01-10T07:16:12;102976.28;;;-4.25;66.05
15750;BME280;7976;52.526;13.326;2024-01-10T07:18:41;102970.56;;;-4.21;66.15
15750;BME280;7976;52.526;13.326;2024-01-10T07:21:09;102968.19;;;-4.18;66.14
15750;BME280;7976;52.526;13.326;2024-01-10T07:23:36;102981.94;;;-4.16;66.27
15750;BME280;7976;52.526;13.326;2024-01-10T07:26:04;102973.47;;;-4.15;66.13
15750;BME280;7976;52.526;13.326;2024-01-10T07:28:31;102970.22;;;-4.13;65.97
15750;BME280;7976;52.526;13.326;2024-01-10T07:30:58;102967.66;;;-4.13;66.31
15750;BME280;7976;52.526;13.326;2024-01-10T07:33:26;102968.56;;;-4.12;66.18
15750;BME280;7976;52.526;13.326;2024-01-10T07:35:54;102971.72;;;-4.16;66.32
15750;BME280;7976;52.526;13.326;2024-01-10T07:38:20;102973.28;;;-4.18;66.33
15750;BME280;7976;52.526;13.326;2024-01-10T07:40:47;102970.81;;;-4.17;66.50
15750;BME280;7976;52.526;13.326;2024-01-10T07:43:14;102968.28;;;-4.17;66.63
15750;BME280;7976;52.526;13.326;2024-01-10T07:45:41;102971.63;;;-4.18;66.43
15750;BME280;7976;52.526;13.326;2024-01-10T07:48:07;102979.38;;;-4.16;66.60
15750;BME280;7976;52.526;13.326;2024-01-10T07:50:34;102977.16;;;-4.10;66.39
15750;BME280;7976;52.526;13.326;2024-01-10T07:53:02;102985.81;;;-4.08;66.38
15750;BME280;7976;52.526;13.326;2024-01-10T07:55:29;102978.78;;;-4.12;66.13
15750;BME280;7976;52.526;13.326;2024-01-10T07:57:56;102975.94;;;-4.17;66.01
15750;BME280;7976;52.526;13.326;2024-01-10T08:00:23;102980.19;;;-4.17;66.29
15750;BME280;7976;52.526;13.326;2024-01-10T08:02:50;102975.25;;;-4.14;66.16
15750;BME280;7976;52.526;13.326;2024-01-10T08:05:17;102977.00;;;-4.13;66.07
15750;BME280;7976;52.526;13.326;2024-01-10T08:07:44;102983.97;;;-4.11;65.99
15750;BME280;7976;52.526;13.326;2024-01-10T08:10:12;102979.03;;;-4.08;65.94
15750;BME280;7976;52.526;13.326;2024-01-10T08:12:41;102975.16;;;-4.01;65.89
15750;BME280;7976;52.526;13.326;2024-01-10T08:15:08;102984.94;;;-3.94;65.65
15750;BME280;7976;52.526;13.326;2024-01-10T08:17:36;102976.56;;;-3.92;65.78
15750;BME280;7976;52.526;13.326;2024-01-10T08:20:04;102985.28;;;-3.88;65.46
15750;BME280;7976;52.526;13.326;2024-01-10T08:22:31;102985.28;;;-3.88;65.31
15750;BME280;7976;52.526;13.326;2024-01-10T08:24:58;102978.50;;;-3.88;64.97
15750;BME280;7976;52.526;13.326;2024-01-10T08:27:26;102981.16;;;-3.86;65.00
15750;BME280;7976;52.526;13.326;2024-01-10T08:29:53;102977.78;;;-3.85;64.85
15750;BME280;7976;52.526;13.326;2024-01-10T08:32:20;102982.13;;;-3.84;64.75
15750;BME280;7976;52.526;13.326;2024-01-10T08:34:47;102988.13;;;-3.83;64.28
15750;BME280;7976;52.526;13.326;2024-01-10T08:37:14;102988.28;;;-3.80;64.37
15750;BME280;7976;52.526;13.326;2024-01-10T08:39:42;102989.34;;;-3.77;64.31
15750;BME280;7976;52.526;13.326;2024-01-10T08:42:09;102986.00;;;-3.76;63.97
15750;BME280;7976;52.526;13.326;2024-01-10T08:44:38;102985.38;;;-3.72;64.25
15750;BME280;7976;52.526;13.326;2024-01-10T08:47:05;102982.25;;;-3.66;64.06
15750;BME280;7976;52.526;13.326;2024-01-10T08:49:31;102992.69;;;-3.63;63.85
15750;BME280;7976;52.526;13.326;2024-01-10T08:51:58;102989.41;;;-3.61;63.86
15750;BME280;7976;52.526;13.326;2024-01-10T08:54:25;102991.34;;;-3.57;63.72
15750;BME280;7976;52.526;13.326;2024-01-10T08:56:52;102992.31;;;-3.55;62.99
15750;BME280;7976;52.526;13.326;2024-01-10T08:59:19;102996.72;;;-3.52;62.49
15750;BME280;7976;52.526;13.326;2024-01-10T09:01:47;102991.59;;;-3.52;61.84
15750;BME280;7976;52.526;13.326;2024-01-10T09:04:14;102995.13;;;-3.50;61.71
15750;BME280;7976;52.526;13.326;2024-01-10T09:06:41;102992.81;;;-3.46;61.74
15750;BME280;7976;52.526;13.326;2024-01-10T09:09:08;102989.81;;;-3.39;61.56
15750;BME280;7976;52.526;13.326;2024-01-10T09:11:34;102991.72;;;-3.35;61.13
15750;BME280;7976;52.526;13.326;2024-01-10T09:14:01;102993.69;;;-3.31;61.05
15750;BME280;7976;52.526;13.326;2024-01-10T09:16:28;102987.22;;;-3.24;61.13
15750;BME280;7976;52.526;13.326;2024-01-10T09:18:56;102981.63;;;-3.17;61.07
15750;BME280;7976;52.526;13.326;2024-01-10T09:21:25;102982.84;;;-3.11;61.16
15750;BME280;7976;52.526;13.326;2024-01-10T09:23:52;102988.13;;;-3.08;61.41
15750;BME280;7976;52.526;13.326;2024-01-10T09:26:19;102978.94;;;-3.04;61.48
15750;BME280;7976;52.526;13.326;2024-01-10T09:28:46;102975.75;;;-3.00;61.69
15750;BME280;7976;52.526;13.326;2024-01-10T09:31:12;102981.19;;;-2.94;61.53
15750;BME280;7976;52.526;13.326;2024-01-10T09:33:40;102984.81;;;-2.91;60.93
15750;BME280;7976;52.526;13.326;2024-01-10T09:36:08;102985.78;;;-2.89;60.24
15750;BME280;7976;52.526;13.326;2024-01-10T09:38:35;102978.31;;;-2.84;60.06
15750;BME280;7976;52.526;13.326;2024-01-10T09:41:03;102973.44;;;-2.80;60.07
15750;BME280;7976;52.526;13.326;2024-01-10T09:43:31;102962.56;;;-2.76;59.97
15750;BME280;7976;52.526;13.326;2024-01-10T09:46:01;102965.38;;;-2.71;59.62
15750;BME280;7976;52.526;13.326;2024-01-10T09:48:29;102968.09;;;-2.68;59.46
15750;BME280;7976;52.526;13.326;2024-01-10T09:50:57;102970.81;;;-2.65;58.94
15750;BME280;7976;52.526;13.326;2024-01-10T09:53:26;102970.16;;;-2.61;58.57
15750;BME280;7976;52.526;13.326;2024-01-10T09:55:53;102969.53;;;-2.57;58.53
15750;BME280;7976;52.526;13.326;2024-01-10T09:58:23;102974.09;;;-2.51;58.38
15750;BME280;7976;52.526;13.326;2024-01-10T10:00:51;102972.66;;;-2.46;58.09
15750;BME280;7976;52.526;13.326;2024-01-10T10:03:19;102972.19;;;-2.39;57.83
15750;BME280;7976;52.526;13.326;2024-01-10T10:05:46;102977.53;;;-2.35;58.11
15750;BME280;7976;52.526;13.326;2024-01-10T10:08:14;102972.63;;;-2.30;58.25
15750;BME280;7976;52.526;13.326;2024-01-10T10:10:50;102975.34;;;-2.27;58.48
15750;BME280;7976;52.526;13.326;2024-01-10T10:13:26;102960.94;;;-2.25;58.77
15750;BME280;7976;52.526;13.326;2024-01-10T10:15:59;102973.88;;;-2.22;58.98
15750;BME280;7976;52.526;13.326;2024-01-10T10:18:27;102960.28;;;-2.21;58.91
15750;BME280;7976;52.526;13.326;2024-01-10T10:21:08;102956.91;;;-2.20;59.00
15750;BME280;7976;52.526;13.326;2024-01-10T10:23:36;102959.56;;;-2.19;58.98
15750;BME280;7976;52.526;13.326;2024-01-10T10:26:16;102950.34;;;-2.15;59.31
15750;BME280;7976;52.526;13.326;2024-01-10T10:28:47;102952.13;;;-2.14;59.14
15750;BME280;7976;52.526;13.326;2024-01-10T10:31:15;102949.63;;;-2.13;59.06
15750;BME280;7976;52.526;13.326;2024-01-10T10:33:42;102947.06;;;-2.13;58.75
15750;BME280;7976;52.526;13.326;2024-01-10T10:36:09;102942.72;;;-2.14;58.87
15750;BME280;7976;52.526;13.326;2024-01-10T10:38:37;102931.00;;;-2.09;59.23
15750;BME280;7976;52.526;13.326;2024-01-10T10:41:05;102938.13;;;-2.03;59.32
15750;BME280;7976;52.526;13.326;2024-01-10T10:43:38;102938.28;;;-2.00;59.16
15750;BME280;7976;52.526;13.326;2024-01-10T10:46:07;102923.91;;;-1.97;58.65
15750;BME280;7976;52.526;13.326;2024-01-10T10:48:36;102929.25;;;-1.92;58.57
15750;BME280;7976;52.526;13.326;2024-01-10T10:51:07;102928.63;;;-1.88;58.08
15750;BME280;7976;52.526;13.326;2024-01-10T10:53:35;102931.47;;;-1.82;57.60
15750;BME280;7976;52.526;13.326;2024-01-10T10:56:04;102935.88;;;-1.80;57.07
15750;BME280;7976;52.526;13.326;2024-01-10T10:58:37;102937.88;;;-1.74;56.67
15750;BME280;7976;52.526;13.326;2024-01-10T11:01:06;102937.19;;;-1.70;56.38
15750;BME280;7976;52.526;13.326;2024-01-10T11:03:35;102941.69;;;-1.66;56.49
15750;BME280;7976;52.526;13.326;2024-01-10T11:06:04;102940.22;;;-1.61;56.10
15750;BME280;7976;52.526;13.326;2024-01-10T11:08:37;102938.81;;;-1.55;55.82
15750;BME280;7976;52.526;13.326;2024-01-10T11:11:14;102939.03;;;-1.50;55.39
15750;BME280;7976;52.526;13.326;2024-01-10T11:14:04;102934.84;;;-1.48;54.54
15750;BME280;7976;52.526;13.326;2024-01-10T11:16:59;102927.41;;;-1.42;54.12
15750;BME280;7976;52.526;13.326;2024-01-10T11:20:13;102924.06;;;-1.41;53.59
15750;BME280;7976;52.526;13.326;2024-01-10T11:23:13;102927.72;;;-1.36;53.63
15750;BME280;7976;52.526;13.326;2024-01-10T11:25:47;102924.66;;;-1.29;53.83
15750;BME280;7976;52.526;13.326;2024-01-10T11:28:13;102923.94;;;-1.25;53.29
15750;BME280;7976;52.526;13.326;2024-01-10T11:30:50;102930.09;;;-1.21;52.98
15750;BME280;7976;52.526;13.326;2024-01-10T11:33:20;102929.53;;;-1.16;53.14
15750;BME280;7976;52.526;13.326;2024-01-10T11:36:13;102920.34;;;-1.11;53.20
15750;BME280;7976;52.526;13.326;2024-01-10T11:39:00;102917.91;;;-1.08;53.21
15750;BME280;7976;52.526;13.326;2024-01-10T11:41:31;102930.94;;;-1.03;53.11
15750;BME280;7976;52.526;13.326;2024-01-10T11:44:27;102921.75;;;-0.98;52.76
15750;BME280;7976;52.526;13.326;2024-01-10T11:46:56;102915.06;;;-0.95;52.33
15750;BME280;7976;52.526;13.326;2024-01-10T11:49:24;102915.19;;;-0.92;51.94
15750;BME280;7976;52.526;13.326;2024-01-10T11:51:55;102911.00;;;-0.90;51.82
15750;BME280;7976;52.526;13.326;2024-01-10T11:54:40;102909.47;;;-0.86;51.63
15750;BME280;7976;52.526;13.326;2024-01-10T11:57:19;102905.34;;;-0.83;51.46
15750;BME280;7976;52.526;13.326;2024-01-10T11:59:47;102902.84;;;-0.81;51.23
15750;BME280;7976;52.526;13.326;2024-01-10T12:02:18;102905.59;;;-0.77;51.03
15750;BME280;7976;52.526;13.326;2024-01-10T12:04:46;102894.59;;;-0.74;51.06
15750;BME280;7976;52.526;13.326;2024-01-10T12:07:14;102887.84;;;-0.72;51.04
15750;BME280;7976;52.526;13.326;2024-01-10T12:09:42;102891.41;;;-0.69;50.95
15750;BME280;7976;52.526;13.326;2024-01-10T12:12:09;102888.09;;;-0.66;50.65
15750;BME280;7976;52.526;13.326;2024-01-10T12:14:37;102883.84;;;-0.66;50.34
15750;BME280;7976;52.526;13.326;2024-01-10T12:17:05;102879.66;;;-0.64;50.39
15750;BME280;7976;52.526;13.326;2024-01-10T12:19:36;102881.50;;;-0.60;50.25
15750;BME280;7976;52.526;13.326;2024-01-10T12:22:03;102871.28;;;-0.58;49.46
15750;BME280;7976;52.526;13.326;2024-01-10T12:24:31;102874.00;;;-0.55;49.58
15750;BME280;7976;52.526;13.326;2024-01-10T12:26:58;102868.13;;;-0.53;50.05
15750;BME280;7976;52.526;13.326;2024-01-10T12:29:26;102869.06;;;-0.51;49.92
15750;BME280;7976;52.526;13.326;2024-01-10T12:31:53;102866.50;;;-0.51;49.27
15750;BME280;7976;52.526;13.326;2024-01-10T12:34:20;102868.31;;;-0.48;48.91
15750;BME280;7976;52.526;13.326;2024-01-10T12:36:54;102862.44;;;-0.46;49.00
15750;BME280;7976;52.526;13.326;2024-01-10T12:39:22;102865.94;;;-0.44;49.72
15750;BME280;7976;52.526;13.326;2024-01-10T12:41:49;102856.59;;;-0.42;49.86
15750;BME280;7976;52.526;13.326;2024-01-10T12:44:16;102853.34;;;-0.38;50.30
15750;BME280;7976;52.526;13.326;2024-01-10T12:46:50;102853.41;;;-0.36;50.43
15750;BME280;7976;52.526;13.326;2024-01-10T12:49:18;102861.16;;;-0.35;50.74
15750;BME280;7976;52.526;13.326;2024-01-10T12:51:48;102860.28;;;-0.35;51.29
15750;BME280;7976;52.526;13.326;2024-01-10T12:54:16;102853.50;;;-0.33;51.86
15750;BME280;7976;52.526;13.326;2024-01-10T12:56:43;102859.66;;;-0.30;52.34